createdAt,value
2023-05-05T00:00:00.576Z,162
2023-05-05T00:10:00.616Z,158
2023-05-05T00:20:00.588Z,153
2023-05-05T00:30:00.607Z,136
2023-05-05T00:40:00.593Z,135
2023-05-05T00:50:00.606Z,112
2023-05-05T01:00:00.593Z,130
2023-05-05T01:10:11.382Z,126
2023-05-05T01:20:00.647Z,144
2023-05-05T01:30:00.600Z,198
2023-05-05T01:40:00.583Z,192
2023-05-05T01:50:00.580Z,160
2023-05-05T02:00:00.579Z,195
2023-05-05T02:10:00.602Z,93
2023-05-05T02:20:00.627Z,146
2023-05-05T02:30:00.645Z,94
2023-05-05T02:40:00.591Z,145
2023-05-05T02:50:00.590Z,70
2023-05-05T03:00:00.631Z,63
2023-05-05T03:10:00.589Z,67
2023-05-05T03:20:03.471Z,58
2023-05-05T03:30:00.733Z,61
2023-05-05T03:40:00.621Z,76
2023-05-05T03:50:00.651Z,83
2023-05-05T04:00:00.613Z,76
2023-05-05T04:10:00.584Z,64
2023-05-05T04:20:00.609Z,139
2023-05-05T04:30:00.585Z,247
2023-05-05T04:40:00.582Z,284
2023-05-05T04:50:00.592Z,255
2023-05-05T05:00:00.607Z,251
2023-05-05T05:10:00.608Z,222
2023-05-05T05:20:00.591Z,187
2023-05-05T05:30:00.582Z,133
2023-05-05T05:40:00.598Z,216
2023-05-05T05:50:00.591Z,126
2023-05-05T06:00:02.105Z,49
2023-05-05T06:10:10.866Z,24
2023-05-05T06:20:00.647Z,34
2023-05-05T06:30:00.581Z,33
2023-05-05T06:40:00.589Z,44
2023-05-05T06:50:00.619Z,42
2023-05-05T07:00:00.587Z,40
2023-05-05T07:10:00.586Z,58
2023-05-05T07:20:00.619Z,45
2023-05-05T07:30:00.628Z,71
2023-05-05T07:40:00.601Z,82
2023-05-05T07:50:00.609Z,97
2023-05-05T08:00:00.618Z,78
2023-05-05T08:10:00.603Z,63
2023-05-05T08:20:00.604Z,106
2023-05-05T08:30:01.948Z,64
2023-05-05T08:40:00.608Z,115
2023-05-05T08:50:00.594Z,97
2023-05-05T09:00:00.636Z,66
2023-05-05T09:10:00.585Z,82
2023-05-05T09:20:00.611Z,89
2023-05-05T09:30:00.600Z,121
2023-05-05T09:40:00.589Z,166
2023-05-05T09:50:00.571Z,202
2023-05-05T10:00:00.620Z,178
2023-05-05T10:10:00.585Z,121
2023-05-05T10:20:00.588Z,142
2023-05-05T10:30:00.604Z,202
2023-05-05T10:40:00.568Z,204
2023-05-05T10:50:00.601Z,226
2023-05-05T11:00:00.589Z,232
2023-05-05T11:10:00.598Z,226
2023-05-05T11:20:00.596Z,200
2023-05-05T11:30:00.602Z,183
2023-05-05T11:40:00.573Z,169
2023-05-05T11:50:00.595Z,160
2023-05-05T12:00:00.598Z,136
2023-05-05T12:10:00.622Z,69
2023-05-05T12:20:00.589Z,69
2023-05-05T12:30:00.571Z,58
2023-05-05T12:40:00.577Z,58
2023-05-05T12:50:00.628Z,39
2023-05-05T13:00:00.592Z,34
2023-05-05T13:10:00.574Z,24
2023-05-05T13:20:00.606Z,26
2023-05-05T13:30:00.586Z,11
2023-05-05T13:40:00.629Z,15
2023-05-05T13:50:00.629Z,12
2023-05-05T14:00:00.591Z,41
2023-05-05T14:10:00.588Z,159
2023-05-05T14:20:00.574Z,19
2023-05-05T14:30:00.600Z,11
2023-05-05T14:40:00.598Z,17
2023-05-05T14:50:00.611Z,19
2023-05-05T15:00:00.598Z,4
2023-05-05T15:10:00.586Z,3
2023-05-05T15:20:00.652Z,8
2023-05-05T15:30:00.592Z,24
2023-05-05T15:40:00.595Z,29
2023-05-05T15:50:00.591Z,33
2023-05-05T16:00:00.605Z,0
2023-05-05T16:10:00.574Z,115
2023-05-05T16:20:00.679Z,317
2023-05-05T16:30:00.655Z,59
2023-05-05T16:40:00.796Z,136
2023-05-05T16:50:00.597Z,491
2023-05-05T17:00:00.578Z,470
2023-05-05T17:10:00.602Z,380
2023-05-05T17:20:00.620Z,332
2023-05-05T17:30:00.583Z,276
2023-05-05T17:40:00.589Z,227
2023-05-05T17:50:00.585Z,186
2023-05-05T18:00:00.594Z,192
2023-05-05T18:10:00.576Z,143
2023-05-05T18:20:00.597Z,164
2023-05-05T18:30:00.588Z,183
2023-05-05T18:40:00.580Z,117
2023-05-05T18:50:00.626Z,126
2023-05-05T19:00:00.641Z,127
2023-05-05T19:10:00.609Z,137
2023-05-05T19:20:00.623Z,96
2023-05-05T19:30:00.601Z,89
2023-05-05T19:40:00.598Z,120
2023-05-05T19:50:00.591Z,146
2023-05-05T20:00:00.636Z,155
2023-05-05T20:10:00.591Z,115
2023-05-05T20:20:00.611Z,114
2023-05-05T20:30:00.589Z,107
2023-05-05T20:40:00.565Z,92
2023-05-05T20:50:00.588Z,94
2023-05-05T21:00:00.575Z,132
2023-05-05T21:10:00.567Z,84
2023-05-05T21:20:00.585Z,71
2023-05-05T21:30:00.586Z,80
2023-05-05T21:40:00.567Z,69
2023-05-05T21:50:00.585Z,62
2023-05-05T22:00:00.583Z,59
2023-05-05T22:10:00.601Z,138
2023-05-05T22:20:00.595Z,147
2023-05-05T22:30:00.585Z,171
2023-05-05T22:40:00.572Z,146
2023-05-05T22:50:00.599Z,94
2023-05-05T23:00:00.591Z,116
2023-05-05T23:10:00.594Z,110
2023-05-05T23:20:00.572Z,133
2023-05-05T23:30:00.599Z,114
2023-05-05T23:40:00.587Z,175
2023-05-05T23:50:00.610Z,107
